createdAt,value
2022-12-05T00:01:16.301Z,9.20
2022-12-05T00:03:43.666Z,11.20
2022-12-05T00:06:10.883Z,11.27
2022-12-05T00:08:38.029Z,9.00
2022-12-05T00:11:05.121Z,10.57
2022-12-05T00:13:32.224Z,12.13
2022-12-05T00:15:59.184Z,14.87
2022-12-05T00:18:26.227Z,11.77
2022-12-05T00:20:53.250Z,8.70
2022-12-05T00:23:20.258Z,11.57
2022-12-05T00:25:47.240Z,11.63
2022-12-05T00:28:14.243Z,11.93
2022-12-05T00:30:41.532Z,13.33
2022-12-05T00:33:08.563Z,17.23
2022-12-05T00:35:35.560Z,11.77
2022-12-05T00:38:02.661Z,16.27
2022-12-05T00:40:29.760Z,22.90
2022-12-05T00:42:56.913Z,16.17
2022-12-05T00:45:23.899Z,14.43
2022-12-05T00:47:53.058Z,21.67
2022-12-05T00:50:23.067Z,14.93
2022-12-05T00:52:50.310Z,14.13
2022-12-05T00:55:17.405Z,14.93
2022-12-05T00:57:44.443Z,14.47
2022-12-05T01:00:11.863Z,11.73
2022-12-05T01:02:38.906Z,15.63
2022-12-05T01:05:06.466Z,12.57
2022-12-05T01:07:33.554Z,20.23
2022-12-05T01:10:00.572Z,13.80
2022-12-05T01:12:28.407Z,13.33
2022-12-05T01:15:04.912Z,15.17
2022-12-05T01:17:31.958Z,14.07
2022-12-05T01:19:59.280Z,14.77
2022-12-05T01:22:26.550Z,11.60
2022-12-05T01:24:53.497Z,16.87
2022-12-05T01:27:20.572Z,12.27
2022-12-05T01:29:47.659Z,15.07
2022-12-05T01:32:14.868Z,13.73
2022-12-05T01:34:42.005Z,13.37
2022-12-05T01:37:09.042Z,16.73
2022-12-05T01:39:36.139Z,13.87
2022-12-05T01:42:05.364Z,14.17
2022-12-05T01:44:32.347Z,12.77
2022-12-05T01:46:59.440Z,13.37
2022-12-05T01:49:40.001Z,12.90
2022-12-05T01:52:27.799Z,14.40
2022-12-05T01:55:00.330Z,12.83
2022-12-05T01:57:27.625Z,14.53
2022-12-05T02:00:00.729Z,13.10
2022-12-05T02:02:30.645Z,14.83
2022-12-05T02:05:09.400Z,18.90
2022-12-05T02:07:39.749Z,14.63
2022-12-05T02:10:08.601Z,13.07
2022-12-05T02:12:38.846Z,15.00
2022-12-05T02:15:26.052Z,14.27
2022-12-05T02:18:14.296Z,13.03
2022-12-05T02:21:00.753Z,12.97
2022-12-05T02:23:33.863Z,13.90
2022-12-05T02:26:06.677Z,13.23
2022-12-05T02:28:54.802Z,14.60
2022-12-05T02:31:38.245Z,15.53
2022-12-05T02:34:11.123Z,14.80
2022-12-05T02:37:05.497Z,12.40
2022-12-05T02:39:38.368Z,19.43
2022-12-05T02:42:21.976Z,13.00
2022-12-05T02:45:00.507Z,16.23
2022-12-05T02:47:32.054Z,12.53
2022-12-05T02:50:01.693Z,18.53
2022-12-05T02:52:32.172Z,16.57
2022-12-05T02:55:00.498Z,17.97
2022-12-05T02:57:27.939Z,15.67
2022-12-05T02:59:55.452Z,17.47
2022-12-05T03:02:31.617Z,17.20
2022-12-05T03:05:11.297Z,12.93
2022-12-05T03:07:40.518Z,18.90
2022-12-05T03:10:08.827Z,21.20
2022-12-05T03:12:44.828Z,19.23
2022-12-05T03:15:38.475Z,16.77
2022-12-05T03:18:13.629Z,15.83
2022-12-05T03:20:51.346Z,23.17
2022-12-05T03:23:23.926Z,17.70
2022-12-05T03:25:55.782Z,18.30
2022-12-05T03:28:37.868Z,21.37
2022-12-05T03:31:14.226Z,20.97
2022-12-05T03:33:49.942Z,19.93
2022-12-05T03:36:22.978Z,22.23
2022-12-05T03:39:02.897Z,19.03
2022-12-05T03:41:58.194Z,22.27
2022-12-05T03:44:41.521Z,20.23
2022-12-05T03:47:21.718Z,21.87
2022-12-05T03:49:59.378Z,31.93
2022-12-05T03:52:56.831Z,31.83
2022-12-05T03:55:26.995Z,35.97
2022-12-05T03:58:10.590Z,35.80
2022-12-05T04:00:42.630Z,34.50
2022-12-05T04:03:20.816Z,37.57
2022-12-05T04:06:01.803Z,38.87
2022-12-05T04:08:42.996Z,35.63
2022-12-05T04:11:16.889Z,32.97
2022-12-05T04:13:46.078Z,28.33
2022-12-05T04:17:03.478Z,27.97
2022-12-05T04:20:03.160Z,35.83
2022-12-05T04:22:30.425Z,29.63
2022-12-05T04:25:18.140Z,28.13
2022-12-05T04:28:00.441Z,29.30
2022-12-05T04:30:38.614Z,28.83
2022-12-05T04:33:10.910Z,25.17
2022-12-05T04:35:52.955Z,21.43
2022-12-05T04:38:31.016Z,29.57
2022-12-05T04:41:04.015Z,26.77
2022-12-05T04:43:41.864Z,21.00
2022-12-05T04:46:12.086Z,26.70
2022-12-05T04:48:42.971Z,21.53
2022-12-05T04:51:16.165Z,23.33
2022-12-05T04:53:45.511Z,20.13
2022-12-05T04:56:17.141Z,24.97
2022-12-05T04:58:44.312Z,24.87
2022-12-05T05:01:17.582Z,22.90
2022-12-05T05:03:55.274Z,27.30
2022-12-05T05:06:22.407Z,22.67
2022-12-05T05:08:57.094Z,34.53
2022-12-05T05:11:33.255Z,25.07
2022-12-05T05:14:01.219Z,28.07
2022-12-05T05:16:32.426Z,23.73
2022-12-05T05:18:59.617Z,29.15
2022-12-05T05:21:32.216Z,27.25
2022-12-05T05:23:59.808Z,26.10
2022-12-05T05:26:27.804Z,26.93
2022-12-05T05:28:55.092Z,31.30
2022-12-05T05:31:22.300Z,26.50
2022-12-05T05:33:51.025Z,23.63
2022-12-05T05:36:18.668Z,25.43
2022-12-05T05:38:48.759Z,25.40
2022-12-05T05:41:24.457Z,25.87
2022-12-05T05:43:52.814Z,24.13
2022-12-05T05:46:23.084Z,22.77
2022-12-05T05:48:50.585Z,34.57
2022-12-05T05:51:19.828Z,38.73
2022-12-05T05:53:47.010Z,24.03
2022-12-05T05:56:22.323Z,25.37
2022-12-05T05:58:56.125Z,26.93
2022-12-05T06:01:34.398Z,29.50
2022-12-05T06:04:01.571Z,43.95
2022-12-05T06:06:28.957Z,52.90
2022-12-05T06:09:01.420Z,35.53
2022-12-05T06:11:29.262Z,43.30
2022-12-05T06:13:58.151Z,25.43
2022-12-05T06:16:25.659Z,31.43
2022-12-05T06:18:56.333Z,35.37
2022-12-05T06:21:24.252Z,26.43
2022-12-05T06:23:51.406Z,25.77
2022-12-05T06:46:44.676Z,25.87
2022-12-05T06:49:11.775Z,27.00
2022-12-05T06:51:38.800Z,31.43
2022-12-05T06:54:05.869Z,21.37
2022-12-05T06:56:33.010Z,24.07
2022-12-05T06:58:59.966Z,24.77
2022-12-05T07:01:39.356Z,23.77
2022-12-05T07:04:13.375Z,22.40
2022-12-05T07:06:44.010Z,22.90
2022-12-05T07:09:14.856Z,23.90
2022-12-05T07:11:42.184Z,24.30
2022-12-05T07:14:31.185Z,23.17
2022-12-05T07:16:59.067Z,20.13
2022-12-05T07:19:26.122Z,26.83
2022-12-05T07:21:53.231Z,24.07
2022-12-05T07:24:20.245Z,25.97
2022-12-05T07:26:47.335Z,23.17
2022-12-05T07:29:14.523Z,24.80
2022-12-05T07:31:41.942Z,27.20
2022-12-05T07:34:09.032Z,23.70
2022-12-05T07:36:36.336Z,23.00
2022-12-05T07:39:03.948Z,28.80
2022-12-05T07:41:33.054Z,22.53
2022-12-05T07:44:01.009Z,25.10
2022-12-05T07:46:29.431Z,27.90
2022-12-05T07:48:57.737Z,27.70
2022-12-05T07:51:25.095Z,23.20
2022-12-05T07:53:52.511Z,27.07
2022-12-05T07:56:20.233Z,32.67
2022-12-05T07:58:49.528Z,22.80
2022-12-05T08:01:25.245Z,22.53
2022-12-05T08:03:57.620Z,20.80
2022-12-05T08:06:29.362Z,23.20
2022-12-05T08:08:57.269Z,21.97
2022-12-05T08:11:30.488Z,25.23
2022-12-05T08:13:58.690Z,24.10
2022-12-05T08:16:28.775Z,21.80
2022-12-05T08:18:57.754Z,23.77
2022-12-05T08:21:27.902Z,27.07
2022-12-05T08:23:55.557Z,25.33
2022-12-05T08:26:28.337Z,22.83
2022-12-05T08:29:01.942Z,27.20
2022-12-05T08:31:31.995Z,22.53
2022-12-05T08:34:00.685Z,21.47
2022-12-05T08:36:29.909Z,23.03
2022-12-05T08:38:59.076Z,21.93
2022-12-05T08:41:29.088Z,19.80
2022-12-05T08:43:57.519Z,31.07
2022-12-05T08:46:24.822Z,22.03
2022-12-05T08:48:52.263Z,20.63
2022-12-05T08:51:19.352Z,19.50
2022-12-05T08:53:46.383Z,19.10
2022-12-05T08:56:13.777Z,21.47
2022-12-05T08:58:41.420Z,25.63
2022-12-05T09:01:08.496Z,20.17
2022-12-05T09:03:36.453Z,22.17
2022-12-05T09:06:12.728Z,22.30
2022-12-05T09:08:40.625Z,21.43
2022-12-05T09:11:20.100Z,22.90
2022-12-05T09:13:48.410Z,20.47
2022-12-05T09:16:17.984Z,19.80
2022-12-05T09:18:45.665Z,20.27
2022-12-05T09:21:21.632Z,16.27
2022-12-05T09:23:49.127Z,20.87
2022-12-05T09:26:19.301Z,19.50
2022-12-05T09:28:46.565Z,23.53
2022-12-05T09:31:17.105Z,23.40
2022-12-05T09:33:44.483Z,19.70
2022-12-05T09:36:15.943Z,22.93
2022-12-05T09:38:43.965Z,19.37
2022-12-05T09:41:51.018Z,22.37
2022-12-05T09:44:41.870Z,21.30
2022-12-05T09:47:18.592Z,18.40
2022-12-05T09:49:57.443Z,24.07
2022-12-05T09:52:29.187Z,20.23
2022-12-05T09:54:58.086Z,20.13
2022-12-05T09:57:35.312Z,25.63
2022-12-05T10:00:04.931Z,23.77
2022-12-05T10:03:01.351Z,24.53
2022-12-05T10:05:37.865Z,22.40
2022-12-05T10:08:29.494Z,26.40
2022-12-05T10:11:05.818Z,20.93
2022-12-05T10:14:00.577Z,25.43
2022-12-05T10:16:33.185Z,23.23
2022-12-05T10:19:06.845Z,18.53
2022-12-05T10:21:36.591Z,19.53
2022-12-05T10:24:15.334Z,21.27
2022-12-05T10:26:50.030Z,22.13
2022-12-05T10:29:44.009Z,19.70
2022-12-05T10:32:15.403Z,20.67
2022-12-05T10:34:44.066Z,23.83
2022-12-05T10:37:14.260Z,24.57
2022-12-05T10:39:41.720Z,23.77
2022-12-05T10:42:15.249Z,29.57
2022-12-05T10:44:42.874Z,26.40
2022-12-05T10:47:10.172Z,27.43
2022-12-05T10:49:38.514Z,25.53
2022-12-05T10:52:06.246Z,23.20
2022-12-05T10:54:41.797Z,23.33
2022-12-05T10:57:24.335Z,22.93
2022-12-05T10:59:51.546Z,21.33
2022-12-05T11:02:26.738Z,19.50
2022-12-05T11:04:55.009Z,19.53
2022-12-05T11:07:35.662Z,20.17
2022-12-05T11:10:22.274Z,19.43
2022-12-05T11:12:52.240Z,19.80
2022-12-05T11:15:22.707Z,37.53
2022-12-05T11:17:50.549Z,18.17
2022-12-05T11:20:20.521Z,19.07
2022-12-05T11:22:54.987Z,18.43
2022-12-05T11:25:37.565Z,22.00
2022-12-05T11:28:16.783Z,17.57
2022-12-05T11:31:02.151Z,20.17
2022-12-05T11:33:34.330Z,20.67
2022-12-05T11:36:24.254Z,25.30
2022-12-05T11:38:51.853Z,23.83
2022-12-05T11:41:29.905Z,18.17
2022-12-05T11:44:06.266Z,20.70
2022-12-05T11:46:57.651Z,17.93
2022-12-05T11:49:44.198Z,16.47
2022-12-05T11:52:40.881Z,16.07
2022-12-05T11:55:15.385Z,18.47
2022-12-05T11:57:57.745Z,16.37
2022-12-05T12:01:03.005Z,16.43
2022-12-05T12:03:58.946Z,20.40
2022-12-05T12:07:03.626Z,21.03
2022-12-05T12:09:50.809Z,19.70
2022-12-05T12:12:42.546Z,16.67
2022-12-05T12:15:31.126Z,21.03
2022-12-05T12:18:28.967Z,23.13
2022-12-05T12:20:55.975Z,18.63
2022-12-05T12:23:54.011Z,18.67
2022-12-05T12:26:44.029Z,16.20
2022-12-05T12:29:46.780Z,14.30
2022-12-05T12:32:46.034Z,14.13
2022-12-05T12:35:38.465Z,11.23
2022-12-05T12:38:37.336Z,31.60
2022-12-05T12:41:11.431Z,12.37
2022-12-05T12:44:17.980Z,11.60
2022-12-05T12:46:54.015Z,16.17
2022-12-05T12:49:32.545Z,85.03
2022-12-05T12:52:24.158Z,12.23
2022-12-05T12:55:20.352Z,11.77
2022-12-05T12:57:55.754Z,16.03
2022-12-05T13:00:48.332Z,12.10
2022-12-05T13:03:27.447Z,12.33
2022-12-05T13:06:21.588Z,12.10
2022-12-05T13:09:04.817Z,13.53
2022-12-05T13:11:39.245Z,10.53
2022-12-05T13:14:15.134Z,11.73
2022-12-05T13:16:50.728Z,14.47
2022-12-05T13:19:31.304Z,14.57
2022-12-05T13:21:59.461Z,16.70
2022-12-05T13:24:28.640Z,15.93
2022-12-05T13:27:00.897Z,15.07
2022-12-05T13:29:42.268Z,12.43
2022-12-05T13:32:28.077Z,12.13
2022-12-05T13:34:57.924Z,12.90
2022-12-05T13:37:48.552Z,12.27
2022-12-05T13:40:50.089Z,12.00
2022-12-05T13:43:22.023Z,12.87
2022-12-05T13:46:11.294Z,11.27
2022-12-05T13:48:44.671Z,14.07
2022-12-05T13:51:19.340Z,13.13
2022-12-05T13:53:49.431Z,14.50
2022-12-05T13:56:28.841Z,14.80
2022-12-05T13:58:58.037Z,13.60
2022-12-05T14:01:28.198Z,21.07
2022-12-05T14:04:00.947Z,14.27
2022-12-05T14:06:39.581Z,13.60
2022-12-05T14:09:18.399Z,18.37
2022-12-05T14:12:10.170Z,22.67
2022-12-05T14:14:56.725Z,15.03
2022-12-05T14:17:26.344Z,11.27
2022-12-05T14:20:46.839Z,14.57
2022-12-05T14:23:37.148Z,12.27
2022-12-05T14:26:08.961Z,11.43
2022-12-05T14:29:06.586Z,15.00
2022-12-05T14:31:42.672Z,11.50
2022-12-05T14:34:09.556Z,117.10
2022-12-05T14:36:38.557Z,19.53
2022-12-05T14:39:22.824Z,26.63
2022-12-05T14:42:00.836Z,51.47
2022-12-05T14:44:32.335Z,228.50
2022-12-05T14:47:03.494Z,1102.00
2022-12-05T14:49:52.875Z,842.53
2022-12-05T14:52:26.721Z,416.80
2022-12-05T14:55:00.480Z,71.03
2022-12-05T14:57:29.192Z,622.77
2022-12-05T15:00:07.165Z,551.20
2022-12-05T15:02:39.585Z,31.93
2022-12-05T15:05:21.560Z,24.33
2022-12-05T15:07:50.134Z,21.17
2022-12-05T15:10:21.771Z,17.33
2022-12-05T15:13:03.179Z,36.50
2022-12-05T15:15:55.432Z,32.37
2022-12-05T15:18:35.051Z,16.80
2022-12-05T15:21:18.315Z,26.53
2022-12-05T15:24:06.285Z,18.03
2022-12-05T15:26:46.902Z,29.23
2022-12-05T15:29:29.813Z,17.13
2022-12-05T15:32:15.865Z,36.00
2022-12-05T15:34:53.910Z,17.57
2022-12-05T15:37:25.080Z,15.73
2022-12-05T15:40:14.286Z,14.57
2022-12-05T15:42:46.040Z,13.47
2022-12-05T15:45:13.499Z,16.13
2022-12-05T15:47:41.688Z,13.63
2022-12-05T15:50:36.105Z,24.57
2022-12-05T15:53:27.136Z,10.73
2022-12-05T15:56:01.090Z,16.10
2022-12-05T15:58:31.673Z,12.23
2022-12-05T16:01:09.899Z,14.13
2022-12-05T16:03:55.044Z,13.40
2022-12-05T16:06:43.872Z,18.00
2022-12-05T16:09:40.544Z,15.53
2022-12-05T16:12:20.232Z,135.80
2022-12-05T16:14:59.395Z,83.87
2022-12-05T16:17:30.730Z,38.97
2022-12-05T16:20:16.344Z,13.53
2022-12-05T16:22:51.853Z,45.70
2022-12-05T16:25:26.282Z,39.67
2022-12-05T16:28:00.609Z,27.93
2022-12-05T16:30:29.192Z,14.97
2022-12-05T16:33:02.395Z,20.13
2022-12-05T16:35:37.317Z,13.50
2022-12-05T16:38:15.220Z,18.10
2022-12-05T16:40:45.276Z,18.63
2022-12-05T16:43:26.794Z,21.63
2022-12-05T16:45:56.506Z,22.20
2022-12-05T16:48:25.639Z,21.03
2022-12-05T16:51:13.815Z,22.37
2022-12-05T16:53:43.215Z,21.70
2022-12-05T16:56:22.896Z,26.10
2022-12-05T16:58:49.930Z,41.80
2022-12-05T17:01:20.691Z,31.90
2022-12-05T17:03:48.270Z,24.53
2022-12-05T17:06:15.717Z,17.67
2022-12-05T17:08:43.215Z,16.83
2022-12-05T17:11:20.315Z,21.33
2022-12-05T17:13:48.778Z,27.60
2022-12-05T17:16:17.362Z,25.10
2022-12-05T17:18:45.487Z,36.20
2022-12-05T17:21:24.230Z,65.40
2022-12-05T17:23:52.079Z,46.70
2022-12-05T17:26:21.425Z,24.33
2022-12-05T17:28:48.991Z,18.77
2022-12-05T17:31:26.040Z,20.87
2022-12-05T17:33:54.638Z,20.83
2022-12-05T17:36:21.899Z,30.63
2022-12-05T17:38:49.731Z,30.93
2022-12-05T17:41:22.979Z,30.07
2022-12-05T17:43:51.611Z,26.60
2022-12-05T17:46:20.990Z,23.60
2022-12-05T17:48:49.766Z,43.27
2022-12-05T17:51:17.329Z,25.33
2022-12-05T17:53:44.836Z,29.70
2022-12-05T17:56:12.418Z,25.60
2022-12-05T17:58:39.829Z,34.03
2022-12-05T18:01:07.465Z,28.57
2022-12-05T18:03:34.563Z,24.37
2022-12-05T18:06:03.920Z,26.27
2022-12-05T18:08:30.948Z,22.00
2022-12-05T18:10:58.454Z,23.60
2022-12-05T18:13:25.446Z,28.23
2022-12-05T18:15:57.309Z,26.07
2022-12-05T18:18:27.494Z,32.13
2022-12-05T18:20:54.520Z,29.27
2022-12-05T18:23:21.660Z,31.80
2022-12-05T18:25:58.748Z,27.03
2022-12-05T18:28:26.947Z,25.67
2022-12-05T18:31:11.813Z,26.47
2022-12-05T18:33:39.833Z,23.77
2022-12-05T18:36:09.362Z,24.93
2022-12-05T18:38:37.551Z,26.17
2022-12-05T18:41:07.886Z,39.43
2022-12-05T18:43:36.063Z,26.93
2022-12-05T18:46:04.671Z,19.77
2022-12-05T18:48:44.632Z,33.27
2022-12-05T18:51:20.855Z,24.33
2022-12-05T18:53:53.406Z,21.87
2022-12-05T18:56:31.958Z,25.00
2022-12-05T18:59:02.656Z,22.73
2022-12-05T19:01:31.183Z,23.27
2022-12-05T19:03:59.928Z,23.27
2022-12-05T19:06:30.207Z,22.90
2022-12-05T19:08:59.470Z,22.90
2022-12-05T19:11:27.867Z,21.33
2022-12-05T19:13:59.829Z,30.43
2022-12-05T19:16:29.115Z,39.67
2022-12-05T19:18:58.554Z,23.93
2022-12-05T19:21:27.431Z,23.83
2022-12-05T19:23:55.058Z,29.53
2022-12-05T19:26:23.103Z,27.47
2022-12-05T19:28:50.407Z,25.57
2022-12-05T19:31:20.340Z,26.07
2022-12-05T19:33:50.020Z,26.67
2022-12-05T19:36:19.132Z,39.53
2022-12-05T19:38:48.473Z,47.87
2022-12-05T19:41:18.496Z,35.13
2022-12-05T19:43:45.850Z,27.90
2022-12-05T19:46:21.662Z,25.33
2022-12-05T19:48:49.170Z,24.73
2022-12-05T19:51:16.422Z,21.43
2022-12-05T19:53:44.336Z,22.80
2022-12-05T19:56:38.006Z,24.43
2022-12-05T19:59:06.145Z,23.83
2022-12-05T20:01:35.728Z,22.90
2022-12-05T20:04:05.790Z,23.87
2022-12-05T20:06:35.600Z,24.20
2022-12-05T20:09:04.278Z,26.17
2022-12-05T20:11:31.519Z,31.37
2022-12-05T20:14:00.237Z,26.00
2022-12-05T20:16:29.014Z,22.97
2022-12-05T20:18:59.115Z,26.97
2022-12-05T20:21:28.351Z,26.60
2022-12-05T20:23:55.721Z,23.60
2022-12-05T20:26:25.335Z,21.23
2022-12-05T20:28:52.707Z,28.80
2022-12-05T20:31:22.549Z,25.03
2022-12-05T20:33:51.190Z,34.17
2022-12-05T20:36:24.178Z,23.63
2022-12-05T20:38:56.394Z,29.00
2022-12-05T20:41:23.590Z,21.63
2022-12-05T20:44:00.030Z,22.03
2022-12-05T20:46:28.813Z,23.97
2022-12-05T20:48:56.680Z,27.13
2022-12-05T20:51:31.502Z,17.53
2022-12-05T20:53:59.885Z,20.23
2022-12-05T20:56:29.786Z,23.50
2022-12-05T20:58:59.432Z,20.53
2022-12-05T21:01:28.370Z,22.47
2022-12-05T21:03:56.089Z,21.50
2022-12-05T21:06:25.653Z,22.07
2022-12-05T21:08:53.673Z,24.00
2022-12-05T21:11:21.844Z,27.93
2022-12-05T21:13:48.884Z,23.40
2022-12-05T21:16:19.087Z,27.20
2022-12-05T21:18:46.711Z,29.43
2022-12-05T21:21:19.835Z,19.50
2022-12-05T21:23:51.944Z,18.83
2022-12-05T21:26:19.434Z,25.93
2022-12-05T21:28:46.746Z,20.20
2022-12-05T21:31:28.035Z,18.67
2022-12-05T21:33:57.642Z,19.47
2022-12-05T21:36:26.073Z,20.80
2022-12-05T21:38:56.188Z,18.97
2022-12-05T21:41:25.184Z,22.60
2022-12-05T21:43:55.480Z,18.33
2022-12-05T21:46:23.737Z,23.80
2022-12-05T21:48:50.867Z,18.53
2022-12-05T21:51:17.850Z,22.33
2022-12-05T21:53:45.026Z,20.43
2022-12-05T21:56:17.432Z,18.73
2022-12-05T21:58:45.998Z,19.80
2022-12-05T22:01:17.747Z,28.03
2022-12-05T22:03:45.409Z,24.20
2022-12-05T22:06:15.423Z,23.73
2022-12-05T22:08:43.115Z,20.60
2022-12-05T22:11:13.087Z,22.50
2022-12-05T22:13:41.190Z,19.53
2022-12-05T22:16:09.211Z,22.10
2022-12-05T22:18:37.164Z,20.20
2022-12-05T22:21:13.148Z,20.30
2022-12-05T22:23:40.317Z,21.93
2022-12-05T22:26:10.439Z,24.77
2022-12-05T22:28:38.168Z,20.47
2022-12-05T22:31:07.810Z,20.43
2022-12-05T22:33:36.802Z,22.43
2022-12-05T22:36:07.037Z,18.17
2022-12-05T22:38:36.235Z,20.13
2022-12-05T22:41:09.149Z,19.07
2022-12-05T22:43:38.015Z,19.00
2022-12-05T22:46:20.050Z,19.67
2022-12-05T22:48:48.196Z,19.73
2022-12-05T22:51:15.887Z,18.00
2022-12-05T22:53:42.873Z,18.23
2022-12-05T22:56:15.338Z,18.33
2022-12-05T22:58:43.034Z,18.47
2022-12-05T23:01:14.428Z,21.63
2022-12-05T23:03:42.659Z,19.70
2022-12-05T23:06:12.503Z,17.67
2022-12-05T23:08:40.812Z,16.13
2022-12-05T23:11:09.173Z,19.40
2022-12-05T23:13:36.820Z,19.50
2022-12-05T23:16:09.336Z,21.50
2022-12-05T23:18:46.841Z,17.77
2022-12-05T23:21:29.568Z,19.60
2022-12-05T23:23:59.960Z,19.27
2022-12-05T23:26:30.649Z,18.13
2022-12-05T23:28:57.696Z,20.57
2022-12-05T23:31:25.139Z,18.17
2022-12-05T23:33:52.349Z,20.60
2022-12-05T23:36:20.382Z,18.43
2022-12-05T23:38:47.860Z,17.70
2022-12-05T23:41:18.098Z,18.50
2022-12-05T23:43:46.021Z,17.67
2022-12-05T23:46:14.654Z,19.63
2022-12-05T23:48:42.044Z,18.47
2022-12-05T23:51:10.608Z,24.17
2022-12-05T23:53:40.158Z,25.73
2022-12-05T23:56:14.831Z,21.37
2022-12-05T23:58:42.625Z,18.33
